createdAt,value
2018-05-13T00:00:35.010Z,988.27
2018-05-13T00:01:34.968Z,988.27
2018-05-13T00:02:34.994Z,988.23
2018-05-13T00:03:35.131Z,988.25
2018-05-13T00:04:35.221Z,988.21
2018-05-13T00:05:35.536Z,988.28
2018-05-13T00:06:35.627Z,988.28
2018-05-13T00:07:35.692Z,988.28
2018-05-13T00:08:35.703Z,988.27
2018-05-13T00:09:35.790Z,988.28
2018-05-13T00:10:35.966Z,988.24
2018-05-13T00:11:36.041Z,988.26
2018-05-13T00:12:36.061Z,988.26
2018-05-13T00:13:36.043Z,988.28
2018-05-13T00:14:36.207Z,988.27
2018-05-13T00:15:36.273Z,988.24
2018-05-13T00:16:36.439Z,988.25
2018-05-13T00:17:36.544Z,988.23
2018-05-13T00:18:36.551Z,988.24
2018-05-13T00:19:36.649Z,988.21
2018-05-13T00:20:36.793Z,988.18
2018-05-13T00:21:36.921Z,988.22
2018-05-13T00:22:37.054Z,988.17
2018-05-13T00:23:37.157Z,988.19
2018-05-13T00:24:37.142Z,988.22
2018-05-13T00:25:37.408Z,988.20
2018-05-13T00:26:37.485Z,988.18
2018-05-13T00:27:37.522Z,988.20
2018-05-13T00:28:37.610Z,988.18
2018-05-13T00:29:37.728Z,988.20
2018-05-13T00:30:37.839Z,988.16
2018-05-13T00:31:37.936Z,988.17
2018-05-13T00:32:38.030Z,988.13
2018-05-13T00:33:38.149Z,988.14
2018-05-13T00:34:38.230Z,988.13
2018-05-13T00:35:38.325Z,988.10
2018-05-13T00:36:38.425Z,988.09
2018-05-13T00:37:38.516Z,988.07
2018-05-13T00:38:38.600Z,988.09
2018-05-13T00:39:38.681Z,988.06
2018-05-13T00:40:38.783Z,988.04
2018-05-13T00:41:38.883Z,988.06
2018-05-13T00:42:38.972Z,988.02
2018-05-13T00:43:39.057Z,988.01
2018-05-13T00:44:39.427Z,988.00
2018-05-13T00:45:39.538Z,987.98
2018-05-13T00:46:39.630Z,988.00
2018-05-13T00:47:39.858Z,988.00
2018-05-13T00:48:39.631Z,987.95
2018-05-13T00:49:39.892Z,987.97
2018-05-13T00:50:39.875Z,987.97
2018-05-13T00:51:39.987Z,987.97
2018-05-13T00:52:40.097Z,987.98
2018-05-13T00:53:40.247Z,987.99
2018-05-13T00:54:40.316Z,987.98
2018-05-13T00:55:40.429Z,988.00
2018-05-13T00:56:40.548Z,988.00
2018-05-13T00:57:40.686Z,988.02
2018-05-13T00:58:40.771Z,988.01
2018-05-13T00:59:41.007Z,987.99
2018-05-13T01:00:40.992Z,987.93
2018-05-13T01:01:41.151Z,987.95
2018-05-13T01:02:41.132Z,987.93
2018-05-13T01:03:41.234Z,987.91
2018-05-13T01:04:41.354Z,987.97
2018-05-13T01:05:41.505Z,987.98
2018-05-13T01:06:41.619Z,987.99
2018-05-13T01:07:41.717Z,988.00
2018-05-13T01:08:41.854Z,987.99
2018-05-13T01:09:41.936Z,987.98
2018-05-13T01:10:42.066Z,987.99
2018-05-13T01:11:42.053Z,987.95
2018-05-13T01:12:42.172Z,987.94
2018-05-13T01:13:42.389Z,987.97
2018-05-13T01:14:42.411Z,987.94
2018-05-13T01:15:42.552Z,987.94
2018-05-13T01:16:42.649Z,987.96
2018-05-13T01:17:42.652Z,987.95
2018-05-13T01:18:42.689Z,987.93
2018-05-13T01:19:42.917Z,987.90
2018-05-13T01:20:42.875Z,987.92
2018-05-13T01:21:43.037Z,987.87
2018-05-13T01:22:43.052Z,987.91
2018-05-13T01:23:43.134Z,987.85
2018-05-13T01:24:43.242Z,987.83
2018-05-13T01:25:43.317Z,987.82
2018-05-13T01:26:43.428Z,987.78
2018-05-13T01:27:43.535Z,987.82
2018-05-13T01:28:43.682Z,987.82
2018-05-13T01:29:43.673Z,987.81
2018-05-13T01:30:43.766Z,987.82
2018-05-13T01:31:43.881Z,987.80
2018-05-13T01:32:43.977Z,987.78
2018-05-13T01:33:44.073Z,987.78
2018-05-13T01:34:44.297Z,987.79
2018-05-13T01:35:44.235Z,987.79
2018-05-13T01:36:44.370Z,987.83
2018-05-13T01:37:44.418Z,987.82
2018-05-13T01:38:44.521Z,987.81
2018-05-13T01:39:44.625Z,987.84
2018-05-13T01:40:44.750Z,987.82
2018-05-13T01:41:44.858Z,987.83
2018-05-13T01:42:44.953Z,987.84
2018-05-13T01:43:45.051Z,987.83
2018-05-13T01:44:45.145Z,987.85
2018-05-13T01:45:45.243Z,987.87
2018-05-13T01:46:45.342Z,987.88
2018-05-13T01:47:45.459Z,987.90
2018-05-13T01:48:45.556Z,987.90
2018-05-13T01:49:45.653Z,987.92
2018-05-13T01:50:45.750Z,987.89
2018-05-13T01:51:45.845Z,987.94
2018-05-13T01:52:45.943Z,987.86
2018-05-13T01:53:46.041Z,987.89
2018-05-13T01:54:46.145Z,987.91
2018-05-13T01:55:46.233Z,987.83
2018-05-13T01:56:46.331Z,987.88
2018-05-13T01:57:46.427Z,987.85
2018-05-13T01:58:46.525Z,987.85
2018-05-13T01:59:46.624Z,987.82
2018-05-13T02:00:46.717Z,987.84
2018-05-13T02:01:46.806Z,987.81
2018-05-13T02:02:46.901Z,987.79
2018-05-13T02:03:46.996Z,987.81
2018-05-13T02:04:47.095Z,987.81
2018-05-13T02:05:47.191Z,987.79
2018-05-13T02:06:47.286Z,987.79
2018-05-13T02:07:47.391Z,987.75
2018-05-13T02:08:47.496Z,987.74
2018-05-13T02:09:47.589Z,987.74
2018-05-13T02:10:47.686Z,987.76
2018-05-13T02:11:47.780Z,987.72
2018-05-13T02:12:47.877Z,987.74
2018-05-13T02:13:47.975Z,987.71
2018-05-13T02:14:48.074Z,987.71
2018-05-13T02:15:48.179Z,987.74
2018-05-13T02:16:48.268Z,987.71
2018-05-13T02:17:48.365Z,987.71
2018-05-13T02:18:48.462Z,987.69
2018-05-13T02:19:48.560Z,987.71
2018-05-13T02:20:48.658Z,987.71
2018-05-13T02:21:48.744Z,987.72
2018-05-13T02:22:48.840Z,987.74
2018-05-13T02:23:48.936Z,987.69
2018-05-13T02:24:49.038Z,987.71
2018-05-13T02:25:49.129Z,987.69
2018-05-13T02:26:49.228Z,987.67
2018-05-13T02:27:49.325Z,987.68
2018-05-13T02:28:49.420Z,987.63
2018-05-13T02:29:49.517Z,987.64
2018-05-13T02:30:49.618Z,987.61
2018-05-13T02:31:49.713Z,987.60
2018-05-13T02:32:49.812Z,987.59
2018-05-13T02:33:49.907Z,987.62
2018-05-13T02:34:50.005Z,987.55
2018-05-13T02:35:50.104Z,987.57
2018-05-13T02:36:50.200Z,987.58
2018-05-13T02:37:50.296Z,987.55
2018-05-13T02:38:50.394Z,987.53
2018-05-13T02:39:50.491Z,987.59
2018-05-13T02:40:50.590Z,987.63
2018-05-13T02:41:50.682Z,987.62
2018-05-13T02:42:50.772Z,987.61
2018-05-13T02:43:50.875Z,987.57
2018-05-13T02:44:50.984Z,987.59
2018-05-13T02:45:51.080Z,987.57
2018-05-13T02:46:51.175Z,987.58
2018-05-13T02:47:51.274Z,987.55
2018-05-13T02:48:51.370Z,987.52
2018-05-13T02:49:51.462Z,987.55
2018-05-13T02:50:51.559Z,987.51
2018-05-13T02:51:51.660Z,987.49
2018-05-13T02:52:51.753Z,987.49
2018-05-13T02:53:51.848Z,987.45
2018-05-13T02:54:51.962Z,987.48
2018-05-13T02:55:52.058Z,987.49
2018-05-13T02:56:52.157Z,987.51
2018-05-13T02:57:52.252Z,987.47
2018-05-13T02:58:52.352Z,987.46
2018-05-13T02:59:52.451Z,987.47
2018-05-13T03:00:52.546Z,987.46
2018-05-13T03:01:52.640Z,987.52
2018-05-13T03:02:52.734Z,987.50
2018-05-13T03:03:52.833Z,987.52
2018-05-13T03:04:52.930Z,987.56
2018-05-13T03:05:53.028Z,987.56
2018-05-13T03:06:53.124Z,987.57
2018-05-13T03:07:53.222Z,987.55
2018-05-13T03:08:53.312Z,987.57
2018-05-13T03:09:53.421Z,987.54
2018-05-13T03:10:53.504Z,987.50
2018-05-13T03:11:53.601Z,987.52
2018-05-13T03:12:53.698Z,987.54
2018-05-13T03:13:53.796Z,987.55
2018-05-13T03:14:53.895Z,987.51
2018-05-13T03:15:53.997Z,987.52
2018-05-13T03:16:54.092Z,987.56
2018-05-13T03:17:54.185Z,987.56
2018-05-13T03:18:54.283Z,987.53
2018-05-13T03:19:54.383Z,987.52
2018-05-13T03:20:54.476Z,987.52
2018-05-13T03:21:54.571Z,987.50
2018-05-13T03:22:54.668Z,987.47
2018-05-13T03:23:54.763Z,987.48
2018-05-13T03:24:54.863Z,987.47
2018-05-13T03:25:54.960Z,987.43
2018-05-13T03:26:55.054Z,987.46
2018-05-13T03:27:55.149Z,987.47
2018-05-13T03:28:55.239Z,987.45
2018-05-13T03:29:55.334Z,987.46
2018-05-13T03:30:55.431Z,987.44
2018-05-13T03:31:55.528Z,987.40
2018-05-13T03:32:55.626Z,987.43
2018-05-13T03:33:55.723Z,987.45
2018-05-13T03:34:55.822Z,987.44
2018-05-13T03:35:55.920Z,987.42
2018-05-13T03:36:56.019Z,987.43
2018-05-13T03:37:56.116Z,987.41
2018-05-13T03:38:56.211Z,987.41
2018-05-13T03:39:56.312Z,987.41
2018-05-13T03:40:56.398Z,987.41
2018-05-13T03:41:56.506Z,987.37
2018-05-13T03:42:56.590Z,987.37
2018-05-13T03:43:56.680Z,987.34
2018-05-13T03:44:56.772Z,987.33
2018-05-13T03:45:56.985Z,987.30
2018-05-13T03:46:56.946Z,987.28
2018-05-13T03:47:57.062Z,987.32
2018-05-13T03:48:57.316Z,987.31
2018-05-13T03:49:57.305Z,987.34
2018-05-13T03:50:57.411Z,987.34
2018-05-13T03:51:57.617Z,987.37
2018-05-13T03:52:57.597Z,987.40
2018-05-13T03:53:57.680Z,987.35
2018-05-13T03:54:57.771Z,987.39
2018-05-13T03:55:57.861Z,987.40
2018-05-13T03:56:58.151Z,987.39
2018-05-13T03:57:58.002Z,987.41
2018-05-13T03:58:58.085Z,987.39
2018-05-13T03:59:58.206Z,987.42
2018-05-13T04:00:58.406Z,987.43
2018-05-13T04:01:58.412Z,987.45
2018-05-13T04:02:58.578Z,987.48
2018-05-13T04:03:58.622Z,987.52
2018-05-13T04:04:58.709Z,987.55
2018-05-13T04:05:58.843Z,987.59
2018-05-13T04:06:58.926Z,987.63
2018-05-13T04:07:59.010Z,987.63
2018-05-13T04:08:59.176Z,987.63
2018-05-13T04:09:59.381Z,987.63
2018-05-13T04:10:59.171Z,987.60
2018-05-13T04:11:59.297Z,987.58
2018-05-13T04:12:59.410Z,987.62
2018-05-13T04:13:59.499Z,987.60
2018-05-13T04:14:59.586Z,987.59
2018-05-13T04:15:59.697Z,987.61
2018-05-13T04:16:59.808Z,987.62
2018-05-13T04:17:59.905Z,987.58
2018-05-13T04:19:00.036Z,987.67
2018-05-13T04:20:00.149Z,987.66
2018-05-13T04:21:00.201Z,987.66
2018-05-13T04:22:00.298Z,987.65
2018-05-13T04:23:00.439Z,987.59
2018-05-13T04:24:00.693Z,987.56
2018-05-13T04:25:00.601Z,987.57
2018-05-13T04:26:00.731Z,987.57
2018-05-13T04:27:00.828Z,987.60
2018-05-13T04:28:00.917Z,987.58
2018-05-13T04:29:01.156Z,987.59
2018-05-13T04:30:01.082Z,987.62
2018-05-13T04:31:01.355Z,987.61
2018-05-13T04:32:01.275Z,987.60
2018-05-13T04:33:01.563Z,987.59
2018-05-13T04:34:01.503Z,987.57
2018-05-13T04:35:01.458Z,987.56
2018-05-13T04:36:01.558Z,987.51
2018-05-13T04:37:01.652Z,987.51
2018-05-13T04:38:01.814Z,987.51
2018-05-13T04:39:01.828Z,987.49
2018-05-13T04:40:01.924Z,987.51
2018-05-13T04:41:02.026Z,987.52
2018-05-13T04:42:02.116Z,987.51
2018-05-13T04:43:02.212Z,987.53
2018-05-13T04:44:02.310Z,987.51
2018-05-13T04:45:02.406Z,987.50
2018-05-13T04:46:02.504Z,987.49
2018-05-13T04:47:02.593Z,987.51
2018-05-13T04:48:02.734Z,987.46
2018-05-13T04:49:03.906Z,987.45
2018-05-13T04:50:02.920Z,987.47
2018-05-13T04:51:03.059Z,987.46
2018-05-13T04:52:03.310Z,987.47
2018-05-13T04:53:03.279Z,987.53
2018-05-13T04:54:03.851Z,987.51
2018-05-13T04:55:03.521Z,987.54
2018-05-13T04:56:03.519Z,987.48
2018-05-13T04:57:03.637Z,987.47
2018-05-13T04:58:03.907Z,987.51
2018-05-13T04:59:04.063Z,987.53
2018-05-13T05:00:04.041Z,987.56
2018-05-13T05:01:04.151Z,987.54
2018-05-13T05:02:04.360Z,987.59
2018-05-13T05:03:04.407Z,987.57
2018-05-13T05:04:04.458Z,987.60
2018-05-13T05:05:04.493Z,987.59
2018-05-13T05:06:04.591Z,987.59
2018-05-13T05:07:04.683Z,987.53
2018-05-13T05:08:04.898Z,987.54
2018-05-13T05:09:05.005Z,987.55
2018-05-13T05:10:05.009Z,987.56
2018-05-13T05:11:05.128Z,987.55
2018-05-13T05:12:05.373Z,987.58
2018-05-13T05:13:05.245Z,987.59
2018-05-13T05:14:05.269Z,987.61
2018-05-13T05:15:05.432Z,987.62
2018-05-13T05:16:05.498Z,987.55
2018-05-13T05:17:05.970Z,987.52
2018-05-13T05:18:05.790Z,987.48
2018-05-13T05:19:05.924Z,987.50
2018-05-13T05:20:06.021Z,987.53
2018-05-13T05:21:06.120Z,987.49
2018-05-13T05:22:06.291Z,987.51
2018-05-13T05:23:06.401Z,987.49
2018-05-13T05:24:06.488Z,987.49
2018-05-13T05:25:06.711Z,987.54
2018-05-13T05:26:06.861Z,987.56
2018-05-13T05:27:06.899Z,987.63
2018-05-13T05:28:06.889Z,987.65
2018-05-13T05:29:07.029Z,987.68
2018-05-13T05:30:07.199Z,987.70
2018-05-13T05:31:07.183Z,987.70
2018-05-13T05:32:07.298Z,987.68
2018-05-13T05:33:07.411Z,987.71
2018-05-13T05:34:07.430Z,987.66
2018-05-13T05:35:07.686Z,987.64
2018-05-13T05:36:07.622Z,987.61
2018-05-13T05:37:07.684Z,987.63
2018-05-13T05:38:07.791Z,987.61
2018-05-13T05:39:08.319Z,987.60
2018-05-13T05:40:08.025Z,987.62
2018-05-13T05:41:08.119Z,987.61
2018-05-13T05:42:08.310Z,987.60
2018-05-13T05:43:08.317Z,987.67
2018-05-13T05:44:08.511Z,987.73
2018-05-13T05:45:08.492Z,987.72
2018-05-13T05:46:08.687Z,987.79
2018-05-13T05:47:08.962Z,987.78
2018-05-13T05:48:08.764Z,987.79
2018-05-13T05:49:08.873Z,987.77
2018-05-13T05:50:09.027Z,987.73
2018-05-13T05:51:09.322Z,987.71
2018-05-13T05:52:09.418Z,987.69
2018-05-13T05:53:09.412Z,987.68
2018-05-13T05:54:09.516Z,987.68
2018-05-13T05:55:09.797Z,987.70
2018-05-13T05:56:09.848Z,987.73
2018-05-13T05:57:09.822Z,987.70
2018-05-13T05:58:09.939Z,987.73
2018-05-13T05:59:10.090Z,987.71
2018-05-13T06:00:10.228Z,987.67
2018-05-13T06:01:10.338Z,987.53
2018-05-13T06:02:10.433Z,987.64
2018-05-13T06:03:10.627Z,987.63
2018-05-13T06:04:10.854Z,987.62
2018-05-13T06:05:10.899Z,987.64
2018-05-13T06:06:10.877Z,987.59
2018-05-13T06:07:11.005Z,987.56
2018-05-13T06:08:11.048Z,987.58
2018-05-13T06:09:11.151Z,987.56
2018-05-13T06:10:11.253Z,987.57
2018-05-13T06:11:11.344Z,987.58
2018-05-13T06:12:11.439Z,987.59
2018-05-13T06:13:11.563Z,987.57
2018-05-13T06:14:11.602Z,987.63
2018-05-13T06:15:11.735Z,987.69
2018-05-13T06:16:11.853Z,987.67
2018-05-13T06:17:11.983Z,987.61
2018-05-13T06:18:12.113Z,987.63
2018-05-13T06:19:12.215Z,987.67
2018-05-13T06:20:12.440Z,987.66
2018-05-13T06:21:12.530Z,987.67
2018-05-13T06:22:12.704Z,987.68
2018-05-13T06:23:12.819Z,987.65
2018-05-13T06:24:12.970Z,987.63
2018-05-13T06:25:13.104Z,987.65
2018-05-13T06:26:13.180Z,987.62
2018-05-13T06:27:13.403Z,987.62
2018-05-13T06:28:13.405Z,987.61
2018-05-13T06:29:13.537Z,987.60
2018-05-13T06:30:13.689Z,987.60
2018-05-13T06:31:13.747Z,987.53
2018-05-13T06:32:13.856Z,987.49
2018-05-13T06:33:14.115Z,987.51
2018-05-13T06:34:14.126Z,987.51
2018-05-13T06:35:14.215Z,987.56
2018-05-13T06:36:14.325Z,987.56
2018-05-13T06:37:14.422Z,987.56
2018-05-13T06:38:14.530Z,987.56
2018-05-13T06:39:14.715Z,987.53
2018-05-13T06:40:14.733Z,987.53
2018-05-13T06:41:14.838Z,987.53
2018-05-13T06:42:14.947Z,987.50
2018-05-13T06:43:15.054Z,987.45
2018-05-13T06:44:15.161Z,987.46
2018-05-13T06:45:15.304Z,987.44
2018-05-13T06:46:15.376Z,987.43
2018-05-13T06:47:15.482Z,987.46
2018-05-13T06:48:15.594Z,987.47
2018-05-13T06:49:15.707Z,987.51
2018-05-13T06:50:15.811Z,987.52
2018-05-13T06:51:15.938Z,987.51
2018-05-13T06:52:16.029Z,987.48
2018-05-13T06:53:16.139Z,987.49
2018-05-13T06:54:16.247Z,987.50
2018-05-13T06:55:16.351Z,987.54
2018-05-13T06:56:16.458Z,987.50
2018-05-13T06:57:16.587Z,987.54
2018-05-13T06:58:16.674Z,987.54
2018-05-13T06:59:16.787Z,987.56
2018-05-13T07:00:16.890Z,987.54
2018-05-13T07:01:16.987Z,987.56
2018-05-13T07:02:17.093Z,987.58
2018-05-13T07:03:17.196Z,987.55
2018-05-13T07:04:17.288Z,987.53
2018-05-13T07:05:17.327Z,987.51
2018-05-13T07:06:17.437Z,987.52
2018-05-13T07:07:17.558Z,987.55
2018-05-13T07:08:17.665Z,987.50
2018-05-13T07:09:17.771Z,987.52
2018-05-13T07:10:17.929Z,987.48
2018-05-13T07:11:17.988Z,987.48
2018-05-13T07:12:18.089Z,987.46
2018-05-13T07:13:18.193Z,987.48
2018-05-13T07:14:18.301Z,987.45
2018-05-13T07:15:18.411Z,987.43
2018-05-13T07:16:18.516Z,987.41
2018-05-13T07:17:18.629Z,987.38
2018-05-13T07:18:18.780Z,987.35
2018-05-13T07:19:18.913Z,987.32
2018-05-13T07:20:18.990Z,987.28
2018-05-13T07:21:19.125Z,987.26
2018-05-13T07:22:19.236Z,987.25
2018-05-13T07:23:19.331Z,987.24
2018-05-13T07:24:19.455Z,987.19
2018-05-13T07:25:19.560Z,987.20
2018-05-13T07:26:19.719Z,987.15
2018-05-13T07:27:19.824Z,987.10
2018-05-13T07:28:19.930Z,987.08
2018-05-13T07:29:20.040Z,987.04
2018-05-13T07:30:20.142Z,987.04
2018-05-13T07:31:20.257Z,987.04
2018-05-13T07:32:20.364Z,987.00
2018-05-13T07:33:20.467Z,987.02
2018-05-13T07:34:20.571Z,986.95
2018-05-13T07:35:20.675Z,986.96
2018-05-13T07:36:20.782Z,987.00
2018-05-13T07:37:20.884Z,986.97
2018-05-13T07:38:20.997Z,986.99
2018-05-13T07:39:21.185Z,986.93
2018-05-13T07:40:21.209Z,986.94
2018-05-13T07:41:21.316Z,986.95
2018-05-13T07:42:21.418Z,986.90
2018-05-13T07:43:21.566Z,986.94
2018-05-13T07:44:21.625Z,986.92
2018-05-13T07:45:21.729Z,986.90
2018-05-13T07:46:21.835Z,986.89
2018-05-13T07:47:21.943Z,986.89
2018-05-13T07:48:22.049Z,986.88
2018-05-13T07:49:22.153Z,986.85
2018-05-13T07:50:22.259Z,986.89
2018-05-13T07:51:22.365Z,986.88
2018-05-13T07:52:22.468Z,986.80
2018-05-13T07:53:22.565Z,986.76
2018-05-13T07:54:22.669Z,986.79
2018-05-13T07:55:22.776Z,986.78
2018-05-13T07:56:22.881Z,986.77
2018-05-13T07:57:22.987Z,986.77
2018-05-13T07:58:23.093Z,986.78
2018-05-13T07:59:23.198Z,986.79
2018-05-13T08:00:23.302Z,986.80
2018-05-13T08:01:23.406Z,986.82
2018-05-13T08:02:23.514Z,986.84
2018-05-13T08:03:23.623Z,986.83
2018-05-13T08:04:23.722Z,986.85
2018-05-13T08:05:23.832Z,986.84
2018-05-13T08:06:23.934Z,986.82
2018-05-13T08:07:24.066Z,986.85
2018-05-13T08:08:24.165Z,986.81
2018-05-13T08:09:24.269Z,986.79
2018-05-13T08:10:24.375Z,986.81
2018-05-13T08:11:24.480Z,986.79
2018-05-13T08:12:24.583Z,986.77
2018-05-13T08:13:24.686Z,986.74
2018-05-13T08:14:24.793Z,986.74
2018-05-13T08:15:24.892Z,986.75
2018-05-13T08:16:24.996Z,986.68
2018-05-13T08:17:25.101Z,986.69
2018-05-13T08:18:25.206Z,986.65
2018-05-13T08:19:25.313Z,986.65
2018-05-13T08:20:25.480Z,986.63
2018-05-13T08:21:25.525Z,986.60
2018-05-13T08:22:25.636Z,986.61
2018-05-13T08:23:25.740Z,986.63
2018-05-13T08:24:25.845Z,986.65
2018-05-13T08:25:25.955Z,986.63
2018-05-13T08:26:26.061Z,986.69
2018-05-13T08:27:26.164Z,986.66
2018-05-13T08:28:26.270Z,986.71
2018-05-13T08:29:26.394Z,986.66
2018-05-13T08:30:26.497Z,986.71
2018-05-13T08:31:26.605Z,986.72
2018-05-13T08:32:26.709Z,986.72
2018-05-13T08:33:26.813Z,986.70
2018-05-13T08:34:26.919Z,986.71
2018-05-13T08:35:27.027Z,986.66
2018-05-13T08:36:27.132Z,986.69
2018-05-13T08:37:27.231Z,986.68
2018-05-13T08:38:27.334Z,986.66
2018-05-13T08:39:27.442Z,986.64
2018-05-13T08:40:27.548Z,986.59
2018-05-13T08:41:27.651Z,986.58
2018-05-13T08:42:27.758Z,986.54
2018-05-13T08:43:27.866Z,986.59
2018-05-13T08:44:27.972Z,986.61
2018-05-13T08:45:28.075Z,986.62
2018-05-13T08:46:28.182Z,986.62
2018-05-13T08:47:28.292Z,986.60
2018-05-13T08:48:28.493Z,986.58
2018-05-13T08:49:28.502Z,986.56
2018-05-13T08:50:28.609Z,986.59
2018-05-13T08:51:28.726Z,986.55
2018-05-13T08:52:28.839Z,986.57
2018-05-13T08:53:28.939Z,986.55
2018-05-13T08:54:29.046Z,986.50
2018-05-13T08:55:29.154Z,986.53
2018-05-13T08:56:29.260Z,986.51
2018-05-13T08:57:29.374Z,986.46
2018-05-13T08:58:29.477Z,986.49
2018-05-13T08:59:29.578Z,986.49
2018-05-13T09:00:29.688Z,986.47
2018-05-13T09:01:29.795Z,986.46
2018-05-13T09:02:29.902Z,986.48
2018-05-13T09:03:30.009Z,986.46
2018-05-13T09:04:30.113Z,986.44
2018-05-13T09:05:30.221Z,986.53
2018-05-13T09:06:30.351Z,986.45
2018-05-13T09:07:30.464Z,986.46
2018-05-13T09:08:30.597Z,986.43
2018-05-13T09:09:30.671Z,986.44
2018-05-13T09:10:30.776Z,986.46
2018-05-13T09:11:30.885Z,986.47
2018-05-13T09:12:30.988Z,986.47
2018-05-13T09:13:31.094Z,986.40
2018-05-13T09:14:31.232Z,986.48
2018-05-13T09:15:31.298Z,986.47
2018-05-13T09:16:31.405Z,986.44
2018-05-13T09:17:31.512Z,986.45
2018-05-13T09:18:31.616Z,986.45
2018-05-13T09:19:31.722Z,986.44
2018-05-13T09:20:31.870Z,986.42
2018-05-13T09:21:31.938Z,986.41
2018-05-13T09:22:32.047Z,986.43
2018-05-13T09:23:32.152Z,986.42
2018-05-13T09:24:32.258Z,986.40
2018-05-13T09:25:32.362Z,986.43
2018-05-13T09:26:32.483Z,986.36
2018-05-13T09:27:32.574Z,986.38
2018-05-13T09:28:32.676Z,986.31
2018-05-13T09:29:33.789Z,986.32
2018-05-13T09:30:32.838Z,986.30
2018-05-13T09:31:32.941Z,986.30
2018-05-13T09:32:33.086Z,986.27
2018-05-13T09:33:33.221Z,986.27
2018-05-13T09:34:33.328Z,986.29
2018-05-13T09:35:33.434Z,986.28
2018-05-13T09:36:33.523Z,986.26
2018-05-13T09:37:33.686Z,986.27
2018-05-13T09:38:33.787Z,986.21
2018-05-13T09:39:34.059Z,986.24
2018-05-13T09:40:33.960Z,986.25
2018-05-13T09:41:34.355Z,986.23
2018-05-13T09:42:34.406Z,986.20
2018-05-13T09:43:34.364Z,986.18
2018-05-13T09:44:34.428Z,986.25
2018-05-13T09:45:34.627Z,986.25
2018-05-13T09:46:34.698Z,986.27
2018-05-13T09:47:34.678Z,986.24
2018-05-13T09:48:34.807Z,986.18
2018-05-13T09:49:34.924Z,986.18
2018-05-13T09:50:35.030Z,986.14
2018-05-13T09:51:35.137Z,986.15
2018-05-13T09:52:35.301Z,986.14
2018-05-13T09:53:35.500Z,986.09
2018-05-13T09:54:35.567Z,986.10
2018-05-13T09:55:35.598Z,986.15
2018-05-13T09:56:35.724Z,986.12
2018-05-13T09:57:35.852Z,986.05
2018-05-13T09:58:35.979Z,986.08
2018-05-13T09:59:36.106Z,986.07
2018-05-13T10:00:36.228Z,986.05
2018-05-13T10:01:36.331Z,986.04
2018-05-13T10:02:36.435Z,986.04
2018-05-13T10:03:36.551Z,986.04
2018-05-13T10:04:36.696Z,986.02
2018-05-13T10:05:36.818Z,986.00
2018-05-13T10:06:36.928Z,985.97
2018-05-13T10:07:37.187Z,985.91
2018-05-13T10:08:37.237Z,985.97
2018-05-13T10:09:37.286Z,985.89
2018-05-13T10:10:37.351Z,985.97
2018-05-13T10:11:37.452Z,985.98
2018-05-13T10:12:37.559Z,985.97
2018-05-13T10:13:37.662Z,985.91
2018-05-13T10:14:37.884Z,985.90
2018-05-13T10:15:37.876Z,985.85
2018-05-13T10:16:38.098Z,985.82
2018-05-13T10:17:38.090Z,985.83
2018-05-13T10:18:38.189Z,985.84
2018-05-13T10:19:38.393Z,985.82
2018-05-13T10:20:38.420Z,985.76
2018-05-13T10:21:38.554Z,985.74
2018-05-13T10:22:38.658Z,985.71
2018-05-13T10:23:38.775Z,985.77
2018-05-13T10:24:38.889Z,985.74
2018-05-13T10:25:39.035Z,985.77
2018-05-13T10:26:39.138Z,985.69
2018-05-13T10:27:39.249Z,985.66
2018-05-13T10:28:39.368Z,985.62
2018-05-13T10:29:39.479Z,985.62
2018-05-13T10:30:39.584Z,985.61
2018-05-13T10:31:39.711Z,985.66
2018-05-13T10:32:39.813Z,985.63
2018-05-13T10:33:39.970Z,985.73
2018-05-13T10:34:40.070Z,985.71
2018-05-13T10:35:40.184Z,985.71
2018-05-13T10:36:40.289Z,985.67
2018-05-13T10:37:40.389Z,985.61
2018-05-13T10:38:40.542Z,985.61
2018-05-13T10:39:40.604Z,985.62
2018-05-13T10:40:40.737Z,985.58
2018-05-13T10:41:40.856Z,985.60
2018-05-13T10:42:40.980Z,985.60
2018-05-13T10:43:41.100Z,985.65
2018-05-13T10:44:41.317Z,985.66
2018-05-13T10:45:41.308Z,985.67
2018-05-13T10:46:41.401Z,985.59
2018-05-13T10:47:41.516Z,985.64
2018-05-13T10:48:41.621Z,985.60
2018-05-13T10:49:41.724Z,985.61
2018-05-13T10:50:41.822Z,985.60
2018-05-13T10:51:42.051Z,985.54
2018-05-13T10:52:42.010Z,985.54
2018-05-13T10:53:42.126Z,985.56
2018-05-13T10:54:42.267Z,985.63
2018-05-13T10:55:42.382Z,985.53
2018-05-13T10:56:42.570Z,985.50
2018-05-13T10:57:42.573Z,985.52
2018-05-13T10:58:42.798Z,985.54
2018-05-13T10:59:42.765Z,985.54
2018-05-13T11:00:42.874Z,985.57
2018-05-13T11:01:42.982Z,985.49
2018-05-13T11:02:43.178Z,985.48
2018-05-13T11:03:43.181Z,985.47
2018-05-13T11:04:43.305Z,985.47
2018-05-13T11:05:43.398Z,985.45
2018-05-13T11:06:43.508Z,985.48
2018-05-13T11:07:43.613Z,985.49
2018-05-13T11:08:43.745Z,985.50
2018-05-13T11:09:43.972Z,985.47
2018-05-13T11:10:43.954Z,985.44
2018-05-13T11:11:44.067Z,985.42
2018-05-13T11:12:44.165Z,985.41
2018-05-13T11:13:44.261Z,985.40
2018-05-13T11:14:44.369Z,985.37
2018-05-13T11:15:44.463Z,985.41
2018-05-13T11:16:44.569Z,985.42
2018-05-13T11:17:44.754Z,985.39
2018-05-13T11:18:44.809Z,985.40
2018-05-13T11:19:44.833Z,985.46
2018-05-13T11:20:45.162Z,985.43
2018-05-13T11:21:45.089Z,985.40
2018-05-13T11:22:45.185Z,985.40
2018-05-13T11:23:45.292Z,985.35
2018-05-13T11:24:45.484Z,985.42
2018-05-13T11:25:45.486Z,985.41
2018-05-13T11:26:45.814Z,985.43
2018-05-13T11:27:45.695Z,985.38
2018-05-13T11:28:45.816Z,985.37
2018-05-13T11:29:45.869Z,985.41
2018-05-13T11:30:46.079Z,985.40
2018-05-13T11:31:46.062Z,985.35
2018-05-13T11:32:46.171Z,985.35
2018-05-13T11:33:46.304Z,985.34
2018-05-13T11:34:46.476Z,985.35
2018-05-13T11:35:46.457Z,985.35
2018-05-13T11:36:46.582Z,985.32
2018-05-13T11:37:46.689Z,985.27
2018-05-13T11:38:46.797Z,985.28
2018-05-13T11:39:46.950Z,985.25
2018-05-13T11:40:47.040Z,985.22
2018-05-13T11:41:47.136Z,985.16
2018-05-13T11:42:47.317Z,985.16
2018-05-13T11:43:47.373Z,985.08
2018-05-13T11:44:47.354Z,985.11
2018-05-13T11:45:47.458Z,985.08
2018-05-13T11:46:47.731Z,985.10
2018-05-13T11:47:47.689Z,985.07
2018-05-13T11:48:47.800Z,985.10
2018-05-13T11:49:47.904Z,985.13
2018-05-13T11:50:48.021Z,985.12
2018-05-13T11:51:48.132Z,985.20
2018-05-13T11:52:48.241Z,985.18
2018-05-13T11:53:48.349Z,985.25
2018-05-13T11:54:48.459Z,985.26
2018-05-13T11:55:48.568Z,985.30
2018-05-13T11:56:48.673Z,985.39
2018-05-13T11:57:49.995Z,985.36
2018-05-13T11:58:48.984Z,985.38
2018-05-13T11:59:49.119Z,985.40
2018-05-13T12:00:49.243Z,985.34
2018-05-13T12:01:49.357Z,985.32
2018-05-13T12:02:49.458Z,985.38
2018-05-13T12:03:49.696Z,985.40
2018-05-13T12:04:49.673Z,985.33
2018-05-13T12:05:49.791Z,985.36
2018-05-13T12:06:49.904Z,985.38
2018-05-13T12:07:50.007Z,985.40
2018-05-13T12:08:50.116Z,985.42
2018-05-13T12:09:50.226Z,985.38
2018-05-13T12:10:50.334Z,985.33
2018-05-13T12:11:50.457Z,985.35
2018-05-13T12:12:50.619Z,985.32
2018-05-13T12:13:50.678Z,985.32
2018-05-13T12:14:50.783Z,985.30
2018-05-13T12:15:50.882Z,985.34
2018-05-13T12:16:50.983Z,985.32
2018-05-13T12:17:51.105Z,985.34
2018-05-13T12:18:51.208Z,985.29
2018-05-13T12:19:51.316Z,985.35
2018-05-13T12:20:51.423Z,985.32
2018-05-13T12:21:51.532Z,985.32
2018-05-13T12:22:51.656Z,985.36
2018-05-13T12:23:51.766Z,985.36
2018-05-13T12:24:51.875Z,985.36
2018-05-13T12:25:51.985Z,985.41
2018-05-13T12:26:52.094Z,985.44
2018-05-13T12:27:52.202Z,985.47
2018-05-13T12:28:52.361Z,985.51
2018-05-13T12:29:52.424Z,985.43